Cedar Knolls, New Jersey
Current Conditions -  °F | °C
As of 2:15 AM on Wednesday 22 Oct 2014 (Local Time) from KMMU Reporting Station
Overcast Overcast  
Wind Chill: 55°   Ceiling: 1400
Heat Index: 55°   Visibility: 10mi
Dew Point: 52°   Wind: 0mph
Humidity: 88%   Direction: NA
Pressure: 29.9"   Gusts: NA
Location:  40.82°N, 74.45°W
Report Text: KMMU 220615Z AUTO 00000KT 10SM BKN014 OVC020 13/11 A2990 RMK AO2 LTG DSNT SW
Loading
Personal Weather Stations






























Interactive Weather Map
Tropical Storm Tracking
New forecast layout! Learn more

10-Day Weather Forecast

Advertisements
Track Severe Weather on mobile